sensor_id;sensor_type;location;lat;lon;timestamp;P1;durP1;ratioP1;P2;durP2;ratioP2
33184;SDS011;19550;42.872;25.494;2024-02-21T00:00:52;91.65;;;47.20;;
33184;SDS011;19550;42.872;25.494;2024-02-21T00:03:19;86.40;;;47.95;;
33184;SDS011;19550;42.872;25.494;2024-02-21T00:05:46;102.63;;;53.78;;
33184;SDS011;19550;42.872;25.494;2024-02-21T00:08:13;82.40;;;44.25;;
33184;SDS011;19550;42.872;25.494;2024-02-21T00:10:39;75.82;;;43.30;;
33184;SDS011;19550;42.872;25.494;2024-02-21T00:13:06;73.50;;;41.20;;
33184;SDS011;19550;42.872;25.494;2024-02-21T00:15:33;85.13;;;48.78;;
33184;SDS011;19550;42.872;25.494;2024-02-21T00:18:01;97.82;;;50.78;;
33184;SDS011;19550;42.872;25.494;2024-02-21T00:20:28;95.43;;;51.42;;
33184;SDS011;19550;42.872;25.494;2024-02-21T00:22:55;100.05;;;52.03;;
33184;SDS011;19550;42.872;25.494;2024-02-21T00:25:22;100.22;;;50.17;;
33184;SDS011;19550;42.872;25.494;2024-02-21T00:27:48;94.22;;;48.80;;
33184;SDS011;19550;42.872;25.494;2024-02-21T00:30:15;91.82;;;49.55;;
33184;SDS011;19550;42.872;25.494;2024-02-21T00:32:41;86.38;;;47.72;;
33184;SDS011;19550;42.872;25.494;2024-02-21T00:35:10;85.60;;;47.13;;
33184;SDS011;19550;42.872;25.494;2024-02-21T00:37:37;91.17;;;48.07;;
33184;SDS011;19550;42.872;25.494;2024-02-21T00:40:04;90.65;;;49.00;;
33184;SDS011;19550;42.872;25.494;2024-02-21T00:42:32;90.75;;;51.53;;
33184;SDS011;19550;42.872;25.494;2024-02-21T00:44:59;90.13;;;49.00;;
33184;SDS011;19550;42.872;25.494;2024-02-21T00:47:25;97.60;;;48.92;;
33184;SDS011;19550;42.872;25.494;2024-02-21T00:49:52;84.97;;;45.50;;
33184;SDS011;19550;42.872;25.494;2024-02-21T00:52:21;80.03;;;45.17;;
33184;SDS011;19550;42.872;25.494;2024-02-21T00:54:48;86.68;;;46.80;;
33184;SDS011;19550;42.872;25.494;2024-02-21T00:57:15;87.18;;;47.95;;
33184;SDS011;19550;42.872;25.494;2024-02-21T00:59:42;90.80;;;48.00;;
33184;SDS011;19550;42.872;25.494;2024-02-21T01:02:08;86.28;;;46.15;;
33184;SDS011;19550;42.872;25.494;2024-02-21T01:04:35;87.90;;;47.08;;
33184;SDS011;19550;42.872;25.494;2024-02-21T01:07:02;87.07;;;45.80;;
33184;SDS011;19550;42.872;25.494;2024-02-21T01:09:31;82.97;;;45.75;;
33184;SDS011;19550;42.872;25.494;2024-02-21T01:11:57;85.90;;;46.45;;
33184;SDS011;19550;42.872;25.494;2024-02-21T01:14:24;90.30;;;46.90;;
33184;SDS011;19550;42.872;25.494;2024-02-21T01:16:51;85.72;;;45.78;;
33184;SDS011;19550;42.872;25.494;2024-02-21T01:19:18;94.53;;;48.60;;
33184;SDS011;19550;42.872;25.494;2024-02-21T01:21:44;87.88;;;47.03;;
33184;SDS011;19550;42.872;25.494;2024-02-21T01:24:11;80.72;;;43.25;;
33184;SDS011;19550;42.872;25.494;2024-02-21T01:26:41;85.35;;;45.92;;
33184;SDS011;19550;42.872;25.494;2024-02-21T01:29:07;77.43;;;43.80;;
33184;SDS011;19550;42.872;25.494;2024-02-21T01:31:34;83.03;;;45.55;;
33184;SDS011;19550;42.872;25.494;2024-02-21T01:34:01;78.65;;;43.83;;
33184;SDS011;19550;42.872;25.494;2024-02-21T01:36:28;82.68;;;43.90;;
33184;SDS011;19550;42.872;25.494;2024-02-21T01:38:55;75.53;;;43.50;;
33184;SDS011;19550;42.872;25.494;2024-02-21T01:41:22;81.30;;;44.05;;
33184;SDS011;19550;42.872;25.494;2024-02-21T01:43:50;79.40;;;45.22;;
33184;SDS011;19550;42.872;25.494;2024-02-21T01:46:16;79.97;;;43.35;;
33184;SDS011;19550;42.872;25.494;2024-02-21T01:48:44;75.03;;;41.92;;
33184;SDS011;19550;42.872;25.494;2024-02-21T01:51:12;78.85;;;41.60;;
33184;SDS011;19550;42.872;25.494;2024-02-21T01:53:40;81.50;;;45.65;;
33184;SDS011;19550;42.872;25.494;2024-02-21T01:56:09;79.95;;;42.83;;
33184;SDS011;19550;42.872;25.494;2024-02-21T01:58:37;79.28;;;43.63;;
33184;SDS011;19550;42.872;25.494;2024-02-21T02:01:06;78.00;;;42.72;;
33184;SDS011;19550;42.872;25.494;2024-02-21T02:03:33;83.45;;;43.90;;
33184;SDS011;19550;42.872;25.494;2024-02-21T02:06:00;83.15;;;44.30;;
33184;SDS011;19550;42.872;25.494;2024-02-21T02:08:27;80.43;;;44.83;;
33184;SDS011;19550;42.872;25.494;2024-02-21T02:10:54;79.80;;;42.70;;
33184;SDS011;19550;42.872;25.494;2024-02-21T02:13:21;79.57;;;43.17;;
33184;SDS011;19550;42.872;25.494;2024-02-21T02:15:48;84.32;;;45.17;;
33184;SDS011;19550;42.872;25.494;2024-02-21T02:18:17;87.50;;;46.95;;
33184;SDS011;19550;42.872;25.494;2024-02-21T02:20:46;82.90;;;43.97;;
33184;SDS011;19550;42.872;25.494;2024-02-21T02:25:45;101.47;;;50.15;;
33184;SDS011;19550;42.872;25.494;2024-02-21T02:28:14;137.20;;;61.20;;
33184;SDS011;19550;42.872;25.494;2024-02-21T02:30:41;103.63;;;51.53;;
33184;SDS011;19550;42.872;25.494;2024-02-21T02:33:08;87.32;;;45.67;;
33184;SDS011;19550;42.872;25.494;2024-02-21T02:35:35;85.55;;;46.65;;
33184;SDS011;19550;42.872;25.494;2024-02-21T02:38:02;99.05;;;50.88;;
33184;SDS011;19550;42.872;25.494;2024-02-21T02:40:30;97.78;;;50.42;;
33184;SDS011;19550;42.872;25.494;2024-02-21T02:42:57;95.82;;;49.35;;
33184;SDS011;19550;42.872;25.494;2024-02-21T02:45:25;91.70;;;48.00;;
33184;SDS011;19550;42.872;25.494;2024-02-21T02:47:52;94.85;;;49.17;;
33184;SDS011;19550;42.872;25.494;2024-02-21T02:50:20;78.28;;;43.53;;
33184;SDS011;19550;42.872;25.494;2024-02-21T02:52:47;83.15;;;44.83;;
33184;SDS011;19550;42.872;25.494;2024-02-21T02:55:13;86.35;;;44.97;;
33184;SDS011;19550;42.872;25.494;2024-02-21T02:57:42;85.05;;;44.47;;
33184;SDS011;19550;42.872;25.494;2024-02-21T03:00:10;71.65;;;40.92;;
33184;SDS011;19550;42.872;25.494;2024-02-21T03:02:38;77.73;;;41.47;;
33184;SDS011;19550;42.872;25.494;2024-02-21T03:05:11;71.80;;;39.17;;
33184;SDS011;19550;42.872;25.494;2024-02-21T03:07:39;79.10;;;41.65;;
33184;SDS011;19550;42.872;25.494;2024-02-21T03:10:07;74.20;;;40.28;;
33184;SDS011;19550;42.872;25.494;2024-02-21T03:12:34;73.47;;;40.55;;
33184;SDS011;19550;42.872;25.494;2024-02-21T03:15:02;77.22;;;40.28;;
33184;SDS011;19550;42.872;25.494;2024-02-21T03:17:30;72.28;;;40.55;;
33184;SDS011;19550;42.872;25.494;2024-02-21T03:19:57;78.65;;;45.03;;
33184;SDS011;19550;42.872;25.494;2024-02-21T03:22:25;83.13;;;45.63;;
33184;SDS011;19550;42.872;25.494;2024-02-21T03:24:52;70.60;;;38.45;;
33184;SDS011;19550;42.872;25.494;2024-02-21T03:27:19;64.93;;;36.55;;
33184;SDS011;19550;42.872;25.494;2024-02-21T03:29:46;61.53;;;33.97;;
33184;SDS011;19550;42.872;25.494;2024-02-21T03:32:14;56.85;;;30.80;;
33184;SDS011;19550;42.872;25.494;2024-02-21T03:34:41;59.17;;;32.55;;
33184;SDS011;19550;42.872;25.494;2024-02-21T03:37:08;61.35;;;32.10;;
33184;SDS011;19550;42.872;25.494;2024-02-21T03:39:34;59.15;;;31.25;;
33184;SDS011;19550;42.872;25.494;2024-02-21T03:42:02;62.90;;;32.47;;
33184;SDS011;19550;42.872;25.494;2024-02-21T03:44:30;60.47;;;31.92;;
33184;SDS011;19550;42.872;25.494;2024-02-21T03:46:57;55.28;;;30.35;;
33184;SDS011;19550;42.872;25.494;2024-02-21T03:49:25;70.05;;;34.38;;
33184;SDS011;19550;42.872;25.494;2024-02-21T03:51:52;59.72;;;30.38;;
33184;SDS011;19550;42.872;25.494;2024-02-21T03:54:18;65.07;;;36.05;;
33184;SDS011;19550;42.872;25.494;2024-02-21T03:56:45;102.82;;;53.47;;
33184;SDS011;19550;42.872;25.494;2024-02-21T03:59:14;84.38;;;45.22;;
33184;SDS011;19550;42.872;25.494;2024-02-21T04:01:40;75.43;;;42.17;;
33184;SDS011;19550;42.872;25.494;2024-02-21T04:04:07;92.32;;;46.97;;
33184;SDS011;19550;42.872;25.494;2024-02-21T04:06:35;97.03;;;49.97;;
33184;SDS011;19550;42.872;25.494;2024-02-21T04:09:02;88.03;;;45.83;;
33184;SDS011;19550;42.872;25.494;2024-02-21T04:11:29;80.20;;;41.35;;
33184;SDS011;19550;42.872;25.494;2024-02-21T04:13:56;76.90;;;41.40;;
33184;SDS011;19550;42.872;25.494;2024-02-21T04:16:23;74.10;;;39.22;;
33184;SDS011;19550;42.872;25.494;2024-02-21T04:18:50;63.50;;;34.55;;
33184;SDS011;19550;42.872;25.494;2024-02-21T04:21:17;54.78;;;31.73;;
33184;SDS011;19550;42.872;25.494;2024-02-21T04:23:45;56.15;;;30.13;;
33184;SDS011;19550;42.872;25.494;2024-02-21T04:26:12;62.20;;;35.47;;
33184;SDS011;19550;42.872;25.494;2024-02-21T04:28:39;61.20;;;35.28;;
33184;SDS011;19550;42.872;25.494;2024-02-21T04:31:06;65.25;;;33.53;;
33184;SDS011;19550;42.872;25.494;2024-02-21T04:33:33;60.75;;;35.15;;
33184;SDS011;19550;42.872;25.494;2024-02-21T04:35:59;60.13;;;33.95;;
33184;SDS011;19550;42.872;25.494;2024-02-21T04:38:27;63.05;;;32.75;;
33184;SDS011;19550;42.872;25.494;2024-02-21T04:40:58;60.42;;;31.00;;
33184;SDS011;19550;42.872;25.494;2024-02-21T04:43:25;43.50;;;24.63;;
33184;SDS011;19550;42.872;25.494;2024-02-21T04:45:52;56.60;;;30.25;;
33184;SDS011;19550;42.872;25.494;2024-02-21T04:48:19;65.93;;;35.00;;
33184;SDS011;19550;42.872;25.494;2024-02-21T04:50:46;56.78;;;31.73;;
33184;SDS011;19550;42.872;25.494;2024-02-21T04:53:12;51.60;;;30.45;;
33184;SDS011;19550;42.872;25.494;2024-02-21T04:55:39;66.18;;;35.10;;
33184;SDS011;19550;42.872;25.494;2024-02-21T04:58:08;69.13;;;37.28;;
33184;SDS011;19550;42.872;25.494;2024-02-21T05:00:34;66.55;;;34.97;;
33184;SDS011;19550;42.872;25.494;2024-02-21T05:03:01;61.22;;;33.72;;
33184;SDS011;19550;42.872;25.494;2024-02-21T05:05:28;69.35;;;37.90;;
33184;SDS011;19550;42.872;25.494;2024-02-21T05:07:55;65.43;;;36.55;;
33184;SDS011;19550;42.872;25.494;2024-02-21T05:10:21;72.35;;;38.17;;
33184;SDS011;19550;42.872;25.494;2024-02-21T05:12:48;72.63;;;39.35;;
33184;SDS011;19550;42.872;25.494;2024-02-21T05:15:17;69.57;;;37.47;;
33184;SDS011;19550;42.872;25.494;2024-02-21T05:17:43;65.63;;;37.00;;
33184;SDS011;19550;42.872;25.494;2024-02-21T05:20:10;71.60;;;36.40;;
33184;SDS011;19550;42.872;25.494;2024-02-21T05:22:37;70.28;;;37.50;;
33184;SDS011;19550;42.872;25.494;2024-02-21T05:25:04;73.65;;;41.33;;
33184;SDS011;19550;42.872;25.494;2024-02-21T05:27:33;74.80;;;40.85;;
33184;SDS011;19550;42.872;25.494;2024-02-21T05:30:00;67.15;;;38.88;;
33184;SDS011;19550;42.872;25.494;2024-02-21T05:32:29;55.95;;;31.75;;
33184;SDS011;19550;42.872;25.494;2024-02-21T05:34:56;56.80;;;32.10;;
33184;SDS011;19550;42.872;25.494;2024-02-21T05:37:23;67.88;;;38.80;;
33184;SDS011;19550;42.872;25.494;2024-02-21T05:39:50;85.57;;;48.03;;
33184;SDS011;19550;42.872;25.494;2024-02-21T05:42:19;54.70;;;29.98;;
33184;SDS011;19550;42.872;25.494;2024-02-21T05:44:45;58.88;;;33.17;;
33184;SDS011;19550;42.872;25.494;2024-02-21T05:47:12;76.32;;;43.50;;
33184;SDS011;19550;42.872;25.494;2024-02-21T05:49:41;68.97;;;36.00;;
33184;SDS011;19550;42.872;25.494;2024-02-21T05:52:08;63.30;;;33.47;;
33184;SDS011;19550;42.872;25.494;2024-02-21T05:54:37;60.45;;;32.17;;
33184;SDS011;19550;42.872;25.494;2024-02-21T05:57:04;79.70;;;41.75;;
33184;SDS011;19550;42.872;25.494;2024-02-21T05:59:31;75.20;;;41.17;;
33184;SDS011;19550;42.872;25.494;2024-02-21T06:01:57;66.45;;;34.05;;
33184;SDS011;19550;42.872;25.494;2024-02-21T06:04:24;80.63;;;42.10;;
33184;SDS011;19550;42.872;25.494;2024-02-21T06:06:52;98.90;;;49.08;;
33184;SDS011;19550;42.872;25.494;2024-02-21T06:09:19;78.75;;;42.80;;
33184;SDS011;19550;42.872;25.494;2024-02-21T06:11:46;72.20;;;40.55;;
33184;SDS011;19550;42.872;25.494;2024-02-21T06:14:14;80.50;;;44.08;;
33184;SDS011;19550;42.872;25.494;2024-02-21T06:16:41;68.20;;;36.20;;
33184;SDS011;19550;42.872;25.494;2024-02-21T06:19:07;66.45;;;34.00;;
33184;SDS011;19550;42.872;25.494;2024-02-21T06:21:34;63.72;;;36.20;;
33184;SDS011;19550;42.872;25.494;2024-02-21T06:24:02;76.47;;;39.75;;
33184;SDS011;19550;42.872;25.494;2024-02-21T06:26:29;84.43;;;44.03;;
33184;SDS011;19550;42.872;25.494;2024-02-21T06:28:55;95.40;;;45.50;;
33184;SDS011;19550;42.872;25.494;2024-02-21T06:31:22;90.20;;;46.00;;
33184;SDS011;19550;42.872;25.494;2024-02-21T06:33:49;81.80;;;41.28;;
33184;SDS011;19550;42.872;25.494;2024-02-21T06:36:16;70.00;;;39.17;;
33184;SDS011;19550;42.872;25.494;2024-02-21T06:38:42;69.03;;;36.70;;
33184;SDS011;19550;42.872;25.494;2024-02-21T06:41:15;69.85;;;38.72;;
33184;SDS011;19550;42.872;25.494;2024-02-21T06:43:43;101.55;;;58.10;;
33184;SDS011;19550;42.872;25.494;2024-02-21T06:46:10;85.20;;;48.72;;
33184;SDS011;19550;42.872;25.494;2024-02-21T06:48:37;75.53;;;45.30;;
33184;SDS011;19550;42.872;25.494;2024-02-21T06:51:04;86.13;;;50.30;;
33184;SDS011;19550;42.872;25.494;2024-02-21T06:53:31;117.13;;;62.03;;
33184;SDS011;19550;42.872;25.494;2024-02-21T06:55:57;137.43;;;72.22;;
33184;SDS011;19550;42.872;25.494;2024-02-21T06:58:26;136.68;;;72.28;;
33184;SDS011;19550;42.872;25.494;2024-02-21T07:00:52;114.55;;;61.65;;
33184;SDS011;19550;42.872;25.494;2024-02-21T07:03:19;132.65;;;70.20;;
33184;SDS011;19550;42.872;25.494;2024-02-21T07:20:06;138.52;;;78.40;;
33184;SDS011;19550;42.872;25.494;2024-02-21T07:22:34;153.30;;;80.55;;
33184;SDS011;19550;42.872;25.494;2024-02-21T07:25:00;138.88;;;77.40;;
33184;SDS011;19550;42.872;25.494;2024-02-21T07:27:27;136.18;;;77.18;;
33184;SDS011;19550;42.872;25.494;2024-02-21T07:29:56;140.50;;;79.35;;
33184;SDS011;19550;42.872;25.494;2024-02-21T07:32:23;146.98;;;81.55;;
33184;SDS011;19550;42.872;25.494;2024-02-21T07:34:50;143.55;;;80.07;;
33184;SDS011;19550;42.872;25.494;2024-02-21T07:37:18;119.13;;;69.18;;
33184;SDS011;19550;42.872;25.494;2024-02-21T07:39:44;99.60;;;59.95;;
33184;SDS011;19550;42.872;25.494;2024-02-21T07:42:11;102.90;;;62.83;;
33184;SDS011;19550;42.872;25.494;2024-02-21T07:44:38;102.32;;;58.55;;
33184;SDS011;19550;42.872;25.494;2024-02-21T07:47:05;88.60;;;51.92;;
33184;SDS011;19550;42.872;25.494;2024-02-21T07:49:40;100.10;;;56.35;;
33184;SDS011;19550;42.872;25.494;2024-02-21T07:52:07;92.10;;;54.40;;
33184;SDS011;19550;42.872;25.494;2024-02-21T07:54:35;106.10;;;62.85;;
33184;SDS011;19550;42.872;25.494;2024-02-21T07:57:02;95.38;;;53.60;;
33184;SDS011;19550;42.872;25.494;2024-02-21T07:59:29;105.07;;;56.80;;
33184;SDS011;19550;42.872;25.494;2024-02-21T08:01:56;120.75;;;63.65;;
33184;SDS011;19550;42.872;25.494;2024-02-21T08:04:23;112.63;;;57.67;;
33184;SDS011;19550;42.872;25.494;2024-02-21T08:06:51;101.93;;;57.78;;
33184;SDS011;19550;42.872;25.494;2024-02-21T08:09:18;78.85;;;47.08;;
33184;SDS011;19550;42.872;25.494;2024-02-21T08:11:46;85.85;;;49.65;;
33184;SDS011;19550;42.872;25.494;2024-02-21T08:14:13;63.40;;;39.50;;
33184;SDS011;19550;42.872;25.494;2024-02-21T08:16:41;48.05;;;28.98;;
33184;SDS011;19550;42.872;25.494;2024-02-21T08:19:08;28.63;;;17.85;;
33184;SDS011;19550;42.872;25.494;2024-02-21T08:21:35;19.80;;;13.07;;
33184;SDS011;19550;42.872;25.494;2024-02-21T08:24:02;22.27;;;13.85;;
33184;SDS011;19550;42.872;25.494;2024-02-21T08:26:29;36.88;;;21.02;;
33184;SDS011;19550;42.872;25.494;2024-02-21T08:28:57;18.95;;;12.65;;
33184;SDS011;19550;42.872;25.494;2024-02-21T08:31:25;19.10;;;11.93;;
33184;SDS011;19550;42.872;25.494;2024-02-21T08:33:56;41.22;;;19.88;;
33184;SDS011;19550;42.872;25.494;2024-02-21T08:36:27;19.27;;;11.15;;
33184;SDS011;19550;42.872;25.494;2024-02-21T08:38:54;19.48;;;13.15;;
33184;SDS011;19550;42.872;25.494;2024-02-21T08:41:21;14.30;;;9.27;;
33184;SDS011;19550;42.872;25.494;2024-02-21T08:43:49;14.95;;;9.43;;
33184;SDS011;19550;42.872;25.494;2024-02-21T08:46:17;15.10;;;10.23;;
33184;SDS011;19550;42.872;25.494;2024-02-21T08:48:44;24.65;;;12.88;;
33184;SDS011;19550;42.872;25.494;2024-02-21T08:51:12;13.93;;;9.50;;
33184;SDS011;19550;42.872;25.494;2024-02-21T08:53:38;16.85;;;11.10;;
33184;SDS011;19550;42.872;25.494;2024-02-21T08:56:06;18.40;;;11.95;;
33184;SDS011;19550;42.872;25.494;2024-02-21T08:58:34;26.42;;;16.77;;
33184;SDS011;19550;42.872;25.494;2024-02-21T09:01:01;19.70;;;13.25;;
33184;SDS011;19550;42.872;25.494;2024-02-21T09:03:32;18.17;;;12.75;;
33184;SDS011;19550;42.872;25.494;2024-02-21T09:05:59;21.73;;;14.32;;
33184;SDS011;19550;42.872;25.494;2024-02-21T09:08:26;21.63;;;13.85;;
33184;SDS011;19550;42.872;25.494;2024-02-21T09:10:53;16.48;;;11.77;;
33184;SDS011;19550;42.872;25.494;2024-02-21T09:13:20;16.58;;;10.80;;
33184;SDS011;19550;42.872;25.494;2024-02-21T09:15:47;16.50;;;10.93;;
33184;SDS011;19550;42.872;25.494;2024-02-21T09:18:13;18.52;;;11.88;;
33184;SDS011;19550;42.872;25.494;2024-02-21T09:20:42;24.25;;;15.15;;
33184;SDS011;19550;42.872;25.494;2024-02-21T09:23:09;14.73;;;10.75;;
33184;SDS011;19550;42.872;25.494;2024-02-21T09:25:36;14.95;;;9.63;;
33184;SDS011;19550;42.872;25.494;2024-02-21T09:28:03;17.75;;;11.77;;
33184;SDS011;19550;42.872;25.494;2024-02-21T09:30:31;19.80;;;13.15;;
33184;SDS011;19550;42.872;25.494;2024-02-21T09:32:58;31.65;;;16.60;;
33184;SDS011;19550;42.872;25.494;2024-02-21T09:35:26;20.90;;;13.65;;
33184;SDS011;19550;42.872;25.494;2024-02-21T09:37:54;25.02;;;15.13;;
33184;SDS011;19550;42.872;25.494;2024-02-21T09:40:21;28.27;;;17.88;;
33184;SDS011;19550;42.872;25.494;2024-02-21T09:42:49;24.83;;;15.93;;
33184;SDS011;19550;42.872;25.494;2024-02-21T09:45:28;26.40;;;17.67;;
33184;SDS011;19550;42.872;25.494;2024-02-21T09:47:59;22.58;;;14.52;;
33184;SDS011;19550;42.872;25.494;2024-02-21T09:50:43;22.10;;;14.23;;
33184;SDS011;19550;42.872;25.494;2024-02-21T09:53:12;17.73;;;12.77;;
33184;SDS011;19550;42.872;25.494;2024-02-21T09:55:40;18.98;;;13.50;;
33184;SDS011;19550;42.872;25.494;2024-02-21T09:58:09;22.80;;;15.60;;
33184;SDS011;19550;42.872;25.494;2024-02-21T10:00:36;23.80;;;15.05;;
33184;SDS011;19550;42.872;25.494;2024-02-21T10:03:03;45.70;;;27.75;;
33184;SDS011;19550;42.872;25.494;2024-02-21T10:05:35;33.80;;;21.33;;
33184;SDS011;19550;42.872;25.494;2024-02-21T10:08:02;22.05;;;15.25;;
33184;SDS011;19550;42.872;25.494;2024-02-21T10:10:31;25.83;;;17.90;;
33184;SDS011;19550;42.872;25.494;2024-02-21T10:13:08;31.13;;;18.42;;
33184;SDS011;19550;42.872;25.494;2024-02-21T10:15:35;24.30;;;17.00;;
33184;SDS011;19550;42.872;25.494;2024-02-21T10:18:02;21.55;;;14.77;;
33184;SDS011;19550;42.872;25.494;2024-02-21T10:20:29;23.42;;;14.07;;
33184;SDS011;19550;42.872;25.494;2024-02-21T10:23:03;21.52;;;14.90;;
33184;SDS011;19550;42.872;25.494;2024-02-21T10:25:34;27.98;;;18.30;;
33184;SDS011;19550;42.872;25.494;2024-02-21T10:28:03;27.42;;;19.17;;
33184;SDS011;19550;42.872;25.494;2024-02-21T10:30:30;22.20;;;15.25;;
33184;SDS011;19550;42.872;25.494;2024-02-21T10:32:57;21.58;;;14.10;;
33184;SDS011;19550;42.872;25.494;2024-02-21T10:35:27;14.98;;;10.88;;
33184;SDS011;19550;42.872;25.494;2024-02-21T10:40:21;23.55;;;16.23;;
33184;SDS011;19550;42.872;25.494;2024-02-21T10:42:50;20.83;;;15.15;;
33184;SDS011;19550;42.872;25.494;2024-02-21T10:45:27;20.92;;;13.82;;
33184;SDS011;19550;42.872;25.494;2024-02-21T10:48:00;22.38;;;16.20;;
33184;SDS011;19550;42.872;25.494;2024-02-21T10:50:36;12.70;;;9.55;;
33184;SDS011;19550;42.872;25.494;2024-02-21T10:53:24;13.85;;;10.23;;
33184;SDS011;19550;42.872;25.494;2024-02-21T10:56:01;18.42;;;14.00;;
33184;SDS011;19550;42.872;25.494;2024-02-21T10:58:38;12.25;;;8.68;;
33184;SDS011;19550;42.872;25.494;2024-02-21T11:01:06;60.58;;;44.30;;
33184;SDS011;19550;42.872;25.494;2024-02-21T11:03:34;40.67;;;31.90;;
33184;SDS011;19550;42.872;25.494;2024-02-21T11:06:02;15.30;;;10.65;;
33184;SDS011;19550;42.872;25.494;2024-02-21T11:08:30;24.58;;;19.20;;
33184;SDS011;19550;42.872;25.494;2024-02-21T11:10:57;11.98;;;9.20;;
33184;SDS011;19550;42.872;25.494;2024-02-21T11:13:30;12.80;;;9.07;;
33184;SDS011;19550;42.872;25.494;2024-02-21T11:16:06;13.93;;;9.70;;
33184;SDS011;19550;42.872;25.494;2024-02-21T11:18:34;28.73;;;21.25;;
33184;SDS011;19550;42.872;25.494;2024-02-21T11:21:01;13.70;;;10.40;;
33184;SDS011;19550;42.872;25.494;2024-02-21T11:23:29;12.43;;;9.57;;
33184;SDS011;19550;42.872;25.494;2024-02-21T11:26:03;15.05;;;11.77;;
33184;SDS011;19550;42.872;25.494;2024-02-21T11:28:31;15.10;;;10.63;;
33184;SDS011;19550;42.872;25.494;2024-02-21T11:31:07;17.10;;;12.45;;
33184;SDS011;19550;42.872;25.494;2024-02-21T11:33:39;16.85;;;12.48;;
33184;SDS011;19550;42.872;25.494;2024-02-21T11:36:06;21.83;;;14.70;;
33184;SDS011;19550;42.872;25.494;2024-02-21T11:38:33;16.67;;;11.80;;
33184;SDS011;19550;42.872;25.494;2024-02-21T11:40:59;17.60;;;12.20;;
33184;SDS011;19550;42.872;25.494;2024-02-21T11:43:27;18.13;;;10.13;;
33184;SDS011;19550;42.872;25.494;2024-02-21T11:45:58;14.70;;;11.82;;
33184;SDS011;19550;42.872;25.494;2024-02-21T11:48:27;19.60;;;14.38;;
33184;SDS011;19550;42.872;25.494;2024-02-21T11:50:54;12.27;;;8.82;;
33184;SDS011;19550;42.872;25.494;2024-02-21T11:53:21;12.60;;;9.05;;
33184;SDS011;19550;42.872;25.494;2024-02-21T11:55:48;21.80;;;17.05;;
33184;SDS011;19550;42.872;25.494;2024-02-21T11:58:16;19.67;;;15.60;;
33184;SDS011;19550;42.872;25.494;2024-02-21T12:00:42;14.15;;;9.15;;
33184;SDS011;19550;42.872;25.494;2024-02-21T12:03:09;20.83;;;13.85;;
33184;SDS011;19550;42.872;25.494;2024-02-21T12:05:37;11.73;;;8.65;;
33184;SDS011;19550;42.872;25.494;2024-02-21T12:08:04;19.83;;;12.23;;
33184;SDS011;19550;42.872;25.494;2024-02-21T12:10:31;19.42;;;12.57;;
33184;SDS011;19550;42.872;25.494;2024-02-21T12:13:07;11.18;;;7.50;;
33184;SDS011;19550;42.872;25.494;2024-02-21T12:15:34;23.73;;;12.30;;
33184;SDS011;19550;42.872;25.494;2024-02-21T12:18:01;21.38;;;13.93;;
33184;SDS011;19550;42.872;25.494;2024-02-21T12:20:28;21.55;;;14.68;;
33184;SDS011;19550;42.872;25.494;2024-02-21T12:22:58;22.77;;;15.90;;
33184;SDS011;19550;42.872;25.494;2024-02-21T12:25:26;325.88;;;143.60;;
33184;SDS011;19550;42.872;25.494;2024-02-21T12:27:54;138.65;;;66.78;;
33184;SDS011;19550;42.872;25.494;2024-02-21T12:30:21;43.85;;;24.23;;
33184;SDS011;19550;42.872;25.494;2024-02-21T12:32:48;27.92;;;18.17;;
33184;SDS011;19550;42.872;25.494;2024-02-21T12:35:15;57.70;;;29.40;;
33184;SDS011;19550;42.872;25.494;2024-02-21T12:37:42;27.45;;;16.52;;
33184;SDS011;19550;42.872;25.494;2024-02-21T12:40:11;46.25;;;26.23;;
33184;SDS011;19550;42.872;25.494;2024-02-21T12:42:39;25.63;;;15.93;;
33184;SDS011;19550;42.872;25.494;2024-02-21T12:45:08;18.60;;;11.90;;
33184;SDS011;19550;42.872;25.494;2024-02-21T12:47:35;17.57;;;12.20;;
33184;SDS011;19550;42.872;25.494;2024-02-21T12:50:02;22.52;;;13.40;;
33184;SDS011;19550;42.872;25.494;2024-02-21T12:52:31;28.83;;;17.73;;
33184;SDS011;19550;42.872;25.494;2024-02-21T12:54:58;18.40;;;13.23;;
33184;SDS011;19550;42.872;25.494;2024-02-21T12:57:26;16.00;;;10.80;;
33184;SDS011;19550;42.872;25.494;2024-02-21T12:59:53;15.55;;;10.80;;
33184;SDS011;19550;42.872;25.494;2024-02-21T13:02:20;14.45;;;10.18;;
33184;SDS011;19550;42.872;25.494;2024-02-21T13:04:47;14.18;;;10.32;;
33184;SDS011;19550;42.872;25.494;2024-02-21T13:07:14;11.40;;;8.32;;
33184;SDS011;19550;42.872;25.494;2024-02-21T13:09:41;10.60;;;8.00;;
33184;SDS011;19550;42.872;25.494;2024-02-21T13:12:07;13.48;;;9.10;;
33184;SDS011;19550;42.872;25.494;2024-02-21T13:14:36;14.30;;;8.85;;
33184;SDS011;19550;42.872;25.494;2024-02-21T13:17:04;15.75;;;11.98;;
33184;SDS011;19550;42.872;25.494;2024-02-21T13:19:31;39.92;;;28.70;;
33184;SDS011;19550;42.872;25.494;2024-02-21T13:21:58;22.70;;;13.48;;
33184;SDS011;19550;42.872;25.494;2024-02-21T13:24:25;12.25;;;9.45;;
33184;SDS011;19550;42.872;25.494;2024-02-21T13:26:51;11.55;;;9.40;;
33184;SDS011;19550;42.872;25.494;2024-02-21T13:29:18;45.53;;;22.65;;
33184;SDS011;19550;42.872;25.494;2024-02-21T13:31:47;48.28;;;28.83;;
33184;SDS011;19550;42.872;25.494;2024-02-21T13:34:15;112.15;;;61.63;;
33184;SDS011;19550;42.872;25.494;2024-02-21T13:36:42;25.23;;;15.68;;
33184;SDS011;19550;42.872;25.494;2024-02-21T13:39:09;18.30;;;12.15;;
33184;SDS011;19550;42.872;25.494;2024-02-21T13:41:38;33.10;;;19.83;;
33184;SDS011;19550;42.872;25.494;2024-02-21T13:44:05;16.85;;;12.52;;
33184;SDS011;19550;42.872;25.494;2024-02-21T13:46:32;16.55;;;11.10;;
33184;SDS011;19550;42.872;25.494;2024-02-21T13:49:03;16.83;;;11.68;;
33184;SDS011;19550;42.872;25.494;2024-02-21T13:51:32;17.95;;;11.05;;
33184;SDS011;19550;42.872;25.494;2024-02-21T13:54:01;10.02;;;7.88;;
33184;SDS011;19550;42.872;25.494;2024-02-21T13:56:28;19.65;;;12.05;;
33184;SDS011;19550;42.872;25.494;2024-02-21T13:58:55;27.42;;;14.95;;
33184;SDS011;19550;42.872;25.494;2024-02-21T14:01:21;15.65;;;10.38;;
33184;SDS011;19550;42.872;25.494;2024-02-21T14:03:48;13.85;;;8.40;;
33184;SDS011;19550;42.872;25.494;2024-02-21T14:06:16;24.33;;;13.90;;
33184;SDS011;19550;42.872;25.494;2024-02-21T14:08:43;20.25;;;14.80;;
33184;SDS011;19550;42.872;25.494;2024-02-21T14:11:10;25.17;;;18.92;;
33184;SDS011;19550;42.872;25.494;2024-02-21T14:13:37;10.73;;;9.15;;
33184;SDS011;19550;42.872;25.494;2024-02-21T14:16:08;39.78;;;28.27;;
33184;SDS011;19550;42.872;25.494;2024-02-21T14:18:37;18.83;;;11.85;;
33184;SDS011;19550;42.872;25.494;2024-02-21T14:21:06;11.98;;;7.72;;
33184;SDS011;19550;42.872;25.494;2024-02-21T14:23:34;14.55;;;7.57;;
33184;SDS011;19550;42.872;25.494;2024-02-21T14:26:01;13.32;;;7.47;;
33184;SDS011;19550;42.872;25.494;2024-02-21T14:28:28;23.05;;;13.52;;
33184;SDS011;19550;42.872;25.494;2024-02-21T14:30:55;29.75;;;15.88;;